Time;durP1;ratioP1;P1;durP2;ratioP2;P2;SDS_P1;SDS_P2;PMS_P1;PMS_P2;Temp;Humidity;BMP_temperature;BMP_pressure;BME280_temperature;BME280_humidity;BME280_pressure;Samples;Min_cycle;Max_cycle;Signal;HPM_P1;HPM_P2
2023/01/24 00:01:07;;;;;;;24.35;14.80;;;0.00;99.90;;;;;;4936093;29;20043;-73
2023/01/24 00:03:35;;;;;;;25.40;16.08;;;0.00;99.90;;;;;;4946425;29;20055;-73
2023/01/24 00:06:03;;;;;;;41.38;16.35;;;0.00;99.90;;;;;;4947131;28;20055;-74
2023/01/24 00:08:31;;;;;;;33.58;17.10;;;0.00;99.90;;;;;;4944741;28;20058;-74
2023/01/24 00:11:00;;;;;;;30.63;17.92;;;0.00;99.90;;;;;;4942531;29;20060;-74
2023/01/24 00:13:28;;;;;;;26.92;15.30;;;0.00;99.90;;;;;;4944590;28;20056;-73
2023/01/24 00:16:22;;;;;;;38.15;17.48;;;0.00;99.90;;;;;;4945602;29;20400;-74
2023/01/24 00:18:50;;;;;;;21.27;14.27;;;0.00;99.90;;;;;;4942824;29;20070;-74
2023/01/24 00:21:21;;;;;;;23.02;14.70;;;0.00;99.90;;;;;;4942647;29;20410;-73
2023/01/24 00:23:51;;;;;;;35.07;16.13;;;0.00;99.90;;;;;;4932040;28;20067;-73
2023/01/24 00:26:20;;;;;;;20.98;12.18;;;0.00;99.90;;;;;;4944710;29;20055;-74
2023/01/24 00:28:49;;;;;;;28.02;16.92;;;0.00;99.90;;;;;;4945401;29;20062;-74
2023/01/24 00:31:17;;;;;;;34.03;14.30;;;0.00;99.90;;;;;;4928370;29;20065;-74
2023/01/24 00:33:45;;;;;;;66.53;16.02;;;0.00;99.90;;;;;;4944658;28;20047;-73
2023/01/24 00:36:13;;;;;;;17.27;11.98;;;0.00;99.90;;;;;;4945282;28;20043;-73
2023/01/24 00:38:41;;;;;;;26.75;17.92;;;0.00;99.90;;;;;;4944474;29;20067;-73
2023/01/24 00:41:09;;;;;;;35.03;18.48;;;0.00;99.90;;;;;;4939040;28;20090;-73
2023/01/24 00:43:36;;;;;;;31.17;17.02;;;0.00;99.90;;;;;;4945515;29;20047;-73
2023/01/24 00:46:08;;;;;;;35.22;16.80;;;0.00;99.90;;;;;;4943416;28;20062;-73
2023/01/24 00:48:37;;;;;;;24.83;15.05;;;0.00;99.90;;;;;;4938603;29;20044;-73
2023/01/24 00:51:05;;;;;;;27.67;13.07;;;0.00;99.90;;;;;;4941688;29;20386;-73
2023/01/24 00:53:32;;;;;;;30.70;16.58;;;0.10;99.90;;;;;;4920576;29;20052;-74
2023/01/24 00:56:00;;;;;;;31.27;15.20;;;0.00;99.90;;;;;;4944191;28;20059;-73
2023/01/24 00:58:28;;;;;;;38.63;26.23;;;0.00;99.90;;;;;;4941172;29;20113;-73
2023/01/24 01:00:58;;;;;;;11.23;9.82;;;0.00;99.90;;;;;;4940846;28;20040;-73
2023/01/24 01:03:26;;;;;;;37.83;19.20;;;0.00;99.90;;;;;;4922672;29;20059;-74
2023/01/24 01:06:05;;;;;;;31.65;13.55;;;0.00;99.90;;;;;;4943303;28;20055;-73
2023/01/24 01:08:33;;;;;;;23.48;14.43;;;0.00;99.90;;;;;;4933237;29;20051;-73
2023/01/24 01:11:01;;;;;;;29.55;17.70;;;0.00;99.90;;;;;;4944260;29;20048;-74
2023/01/24 01:13:29;;;;;;;29.95;15.13;;;0.00;99.90;;;;;;4944794;28;20082;-73
2023/01/24 01:16:02;;;;;;;19.20;15.98;;;0.10;99.90;;;;;;4941475;29;20142;-73
2023/01/24 01:18:30;;;;;;;24.25;18.13;;;0.00;99.90;;;;;;4944469;29;20067;-73
2023/01/24 01:20:58;;;;;;;20.92;12.73;;;0.10;99.90;;;;;;4944369;29;20043;-73
2023/01/24 01:23:27;;;;;;;22.00;12.90;;;0.10;99.90;;;;;;4944512;29;20106;-73
2023/01/24 01:25:59;;;;;;;24.33;16.10;;;0.10;99.90;;;;;;4939355;29;20058;-74
2023/01/24 01:28:29;;;;;;;25.10;16.55;;;0.10;99.90;;;;;;4945914;28;20134;-73
2023/01/24 01:30:56;;;;;;;22.95;13.48;;;0.10;99.90;;;;;;4942333;29;20052;-73
2023/01/24 01:33:24;;;;;;;30.60;14.63;;;0.10;99.90;;;;;;4949078;28;20047;-73
2023/01/24 01:35:53;;;;;;;33.33;16.33;;;0.10;99.90;;;;;;4944677;29;20043;-74
2023/01/24 01:38:24;;;;;;;21.60;12.07;;;0.10;99.90;;;;;;4952883;29;20070;-74
2023/01/24 01:40:54;;;;;;;17.23;13.07;;;0.10;99.90;;;;;;4941227;29;20054;-73
2023/01/24 01:43:24;;;;;;;35.08;17.13;;;0.10;99.90;;;;;;4947195;28;20047;-74
2023/01/24 01:45:56;;;;;;;31.13;18.60;;;0.10;99.90;;;;;;4943904;29;20507;-74
2023/01/24 01:48:33;;;;;;;31.35;16.20;;;0.10;99.90;;;;;;4943459;28;20043;-74
2023/01/24 01:51:04;;;;;;;34.92;15.32;;;0.10;99.90;;;;;;4947865;29;20047;-74
2023/01/24 01:53:41;;;;;;;38.40;16.13;;;0.10;99.90;;;;;;4942151;28;20055;-74
2023/01/24 01:56:32;;;;;;;27.00;14.75;;;0.10;99.90;;;;;;4944266;29;20039;-74
2023/01/24 01:59:04;;;;;;;33.67;14.50;;;0.10;99.90;;;;;;4938149;29;20059;-74
2023/01/24 02:01:33;;;;;;;29.52;17.23;;;0.10;99.90;;;;;;4952238;28;20055;-73
2023/01/24 02:04:09;;;;;;;32.80;16.52;;;0.10;99.90;;;;;;4948981;28;20062;-74
2023/01/24 02:06:46;;;;;;;19.98;14.95;;;0.10;99.90;;;;;;4937953;29;20054;-74
2023/01/24 02:09:16;;;;;;;25.65;14.95;;;0.10;99.90;;;;;;4943675;28;20047;-74
2023/01/24 02:11:44;;;;;;;18.17;12.03;;;0.10;99.90;;;;;;4936730;28;20054;-74
2023/01/24 02:17:03;;;;;;;26.58;16.77;;;0.10;99.90;;;;;;4945636;28;20048;-74
2023/01/24 02:19:45;;;;;;;20.67;13.48;;;0.10;99.90;;;;;;4931146;29;20062;-74
2023/01/24 02:23:05;;;;;;;42.58;18.08;;;0.10;99.90;;;;;;4943836;29;20040;-74
2023/01/24 02:25:46;;;;;;;18.05;12.85;;;0.10;99.90;;;;;;4867974;29;20056;-74
2023/01/24 02:28:13;;;;;;;31.67;22.23;;;0.10;99.90;;;;;;4935817;28;20043;-73
2023/01/24 02:30:41;;;;;;;25.48;13.50;;;0.10;99.90;;;;;;4940644;29;20059;-74
2023/01/24 02:33:17;;;;;;;24.88;15.50;;;0.10;99.90;;;;;;4941124;29;20044;-73
2023/01/24 02:35:46;;;;;;;24.13;14.70;;;0.10;99.90;;;;;;4947010;28;20056;-74
2023/01/24 02:38:23;;;;;;;23.15;12.10;;;0.10;99.90;;;;;;4927898;29;20047;-73
2023/01/24 02:41:06;;;;;;;31.70;13.98;;;0.10;99.90;;;;;;4943031;28;20052;-74
2023/01/24 02:43:42;;;;;;;25.60;13.48;;;0.10;99.90;;;;;;4939754;29;20055;-74
2023/01/24 02:46:10;;;;;;;37.30;18.63;;;0.10;99.90;;;;;;4953145;29;20050;-73
2023/01/24 02:48:40;;;;;;;29.00;16.93;;;0.10;99.90;;;;;;4949002;29;20036;-74
2023/01/24 02:54:49;;;;;;;30.15;18.30;;;0.10;99.90;;;;;;4952693;29;20079;-73
2023/01/24 03:00:08;;;;;;;42.78;26.73;;;0.10;99.90;;;;;;4920723;29;20047;-74
2023/01/24 03:02:37;;;;;;;21.60;15.65;;;0.10;99.90;;;;;;4920215;29;20048;-73
2023/01/24 03:05:05;;;;;;;26.17;12.02;;;0.10;99.90;;;;;;4920861;29;20051;-74
2023/01/24 03:07:41;;;;;;;36.58;17.83;;;0.10;99.90;;;;;;4937178;29;20051;-74
2023/01/24 03:10:13;;;;;;;28.08;19.85;;;0.10;99.90;;;;;;4935761;29;20051;-74
2023/01/24 03:35:06;;;;;;;15.35;13.70;;;0.20;99.90;;;;;;4935309;29;20042;-81
2023/01/24 03:40:22;;;;;;;27.85;17.02;;;0.20;99.90;;;;;;4931986;29;20044;-82
2023/01/24 03:42:50;;;;;;;17.67;13.63;;;0.20;99.90;;;;;;4937558;28;20043;-82
2023/01/24 03:45:28;;;;;;;22.25;11.65;;;0.20;99.90;;;;;;4935543;28;20046;-81
2023/01/24 03:48:01;;;;;;;41.25;28.50;;;0.20;99.90;;;;;;4954187;28;20054;-81
2023/01/24 03:53:30;;;;;;;18.63;11.63;;;0.20;99.90;;;;;;4928472;28;20042;-81
2023/01/24 03:56:01;;;;;;;17.23;12.95;;;0.20;99.90;;;;;;4950678;28;20059;-80
2023/01/24 03:58:35;;;;;;;18.08;12.30;;;0.20;99.90;;;;;;4972272;28;20039;-81
2023/01/24 04:01:07;;;;;;;28.23;16.80;;;0.20;99.90;;;;;;4973374;28;20044;-82
2023/01/24 04:03:51;;;;;;;20.13;13.38;;;0.20;99.90;;;;;;4956392;28;20046;-81
2023/01/24 04:06:20;;;;;;;24.27;15.60;;;0.20;99.90;;;;;;4992757;28;20061;-82
2023/01/24 04:08:49;;;;;;;23.45;13.65;;;0.20;99.90;;;;;;4969066;28;20057;-82
2023/01/24 04:11:18;;;;;;;23.38;14.20;;;0.20;99.90;;;;;;4969992;28;20043;-82
2023/01/24 04:13:50;;;;;;;26.38;15.65;;;0.20;99.90;;;;;;4969856;28;20039;-83
2023/01/24 04:16:18;;;;;;;23.38;13.85;;;0.20;99.90;;;;;;4969970;28;20035;-82
2023/01/24 04:19:10;;;;;;;25.60;15.98;;;0.30;99.90;;;;;;4955935;28;20040;-82
2023/01/24 04:21:38;;;;;;;15.00;11.95;;;0.20;99.90;;;;;;4965379;28;20053;-82
2023/01/24 04:24:09;;;;;;;29.13;14.50;;;0.30;99.90;;;;;;4930358;28;20054;-82
2023/01/24 04:26:39;;;;;;;25.67;15.63;;;0.30;99.90;;;;;;4944734;28;20050;-82
2023/01/24 04:29:10;;;;;;;22.77;12.82;;;0.30;99.90;;;;;;4930473;28;20059;-82
2023/01/24 04:31:40;;;;;;;26.02;14.15;;;0.20;99.90;;;;;;4965432;28;20055;-82
2023/01/24 04:34:18;;;;;;;54.35;15.20;;;0.20;99.90;;;;;;4930271;28;20069;-82
2023/01/24 04:36:46;;;;;;;24.30;12.00;;;0.30;99.90;;;;;;4961440;28;20043;-82
2023/01/24 04:39:13;;;;;;;27.58;15.38;;;0.30;99.90;;;;;;4938119;29;20050;-82
2023/01/24 04:41:55;;;;;;;26.70;14.45;;;0.30;99.90;;;;;;4947410;28;20054;-82
2023/01/24 04:44:23;;;;;;;12.57;10.77;;;0.30;99.90;;;;;;4944051;28;20059;-82
2023/01/24 04:46:51;;;;;;;31.73;14.63;;;0.30;99.90;;;;;;4944215;28;20058;-82
2023/01/24 04:49:19;;;;;;;20.48;12.57;;;0.30;99.90;;;;;;4947493;28;20039;-82
2023/01/24 04:51:50;;;;;;;20.48;10.25;;;0.30;99.90;;;;;;4930979;28;20046;-83
2023/01/24 04:54:22;;;;;;;20.10;10.40;;;0.30;99.90;;;;;;4941491;29;20057;-83
2023/01/24 04:56:50;;;;;;;23.30;12.85;;;0.30;99.90;;;;;;4946644;28;20049;-83
2023/01/24 04:59:18;;;;;;;27.02;13.32;;;0.30;99.90;;;;;;4945761;28;20047;-82
2023/01/24 05:01:47;;;;;;;28.10;13.77;;;0.30;99.90;;;;;;4963328;28;20047;-82
2023/01/24 05:04:42;;;;;;;20.38;13.15;;;0.30;99.90;;;;;;4939830;28;20066;-82
2023/01/24 05:07:10;;;;;;;14.82;11.88;;;0.30;99.90;;;;;;4945469;28;20054;-82
2023/01/24 05:09:39;;;;;;;22.67;14.20;;;0.30;99.90;;;;;;4944750;28;20053;-83
2023/01/24 05:12:09;;;;;;;19.65;12.15;;;0.30;99.90;;;;;;4948672;28;20053;-82
2023/01/24 05:14:36;;;;;;;19.85;13.15;;;0.30;99.90;;;;;;4939653;29;20058;-83
2023/01/24 05:17:05;;;;;;;23.20;13.45;;;0.30;99.90;;;;;;4945498;28;20128;-82
2023/01/24 05:19:34;;;;;;;25.58;13.35;;;0.40;99.90;;;;;;4944808;28;20066;-82
2023/01/24 05:22:03;;;;;;;24.33;16.38;;;0.30;99.90;;;;;;4943951;28;20353;-82
2023/01/24 05:24:38;;;;;;;23.00;13.38;;;0.40;99.90;;;;;;4945532;28;20054;-83
2023/01/24 05:27:09;;;;;;;21.35;12.18;;;0.30;99.90;;;;;;4917484;28;20051;-83
2023/01/24 05:29:41;;;;;;;23.52;12.27;;;0.30;99.90;;;;;;4946875;28;20054;-82
2023/01/24 05:32:08;;;;;;;18.77;11.98;;;0.30;99.90;;;;;;4946614;28;20062;-83
2023/01/24 05:34:36;;;;;;;28.27;11.60;;;0.40;99.90;;;;;;4948499;28;20069;-82
2023/01/24 05:37:07;;;;;;;20.40;15.88;;;0.40;99.90;;;;;;4946081;28;20040;-83
2023/01/24 05:39:37;;;;;;;15.93;10.23;;;0.40;99.90;;;;;;4943763;28;20050;-83
2023/01/24 05:42:07;;;;;;;31.75;11.55;;;0.40;99.90;;;;;;4950261;28;20062;-82
2023/01/24 05:44:42;;;;;;;25.55;12.02;;;0.40;99.90;;;;;;4950042;28;20053;-82
2023/01/24 05:47:10;;;;;;;19.27;10.73;;;0.40;99.90;;;;;;4968407;28;20070;-82
2023/01/24 05:49:40;;;;;;;24.63;14.27;;;0.30;99.90;;;;;;4951365;28;20043;-83
2023/01/24 05:52:11;;;;;;;24.15;13.55;;;0.40;99.90;;;;;;4929793;29;20459;-83
2023/01/24 05:54:51;;;;;;;20.08;10.52;;;0.40;99.90;;;;;;4941338;28;20051;-82
2023/01/24 05:57:28;;;;;;;32.27;13.67;;;0.40;99.90;;;;;;4948167;28;20113;-83
2023/01/24 06:00:14;;;;;;;37.47;27.08;;;0.40;99.90;;;;;;4962503;28;20290;-82
2023/01/24 06:02:47;;;;;;;23.38;15.68;;;0.40;99.90;;;;;;4934886;28;20062;-83
2023/01/24 06:05:15;;;;;;;24.60;13.90;;;0.30;99.90;;;;;;4958626;28;20052;-83
2023/01/24 06:07:42;;;;;;;24.42;12.05;;;0.40;99.90;;;;;;4937033;28;20046;-83
2023/01/24 06:10:11;;;;;;;15.80;9.82;;;0.30;99.90;;;;;;4950694;28;20047;-82
2023/01/24 06:12:51;;;;;;;25.30;19.85;;;0.40;99.90;;;;;;4946306;28;20476;-81
2023/01/24 06:15:20;;;;;;;22.25;14.13;;;0.40;99.90;;;;;;4944756;28;20061;-83
2023/01/24 06:17:48;;;;;;;28.45;15.13;;;0.40;99.90;;;;;;4946380;28;20055;-83
2023/01/24 06:20:17;;;;;;;41.70;16.65;;;0.30;99.90;;;;;;4931289;28;20038;-84
2023/01/24 06:22:54;;;;;;;31.55;16.15;;;0.40;99.90;;;;;;4967910;28;20062;-84
2023/01/24 06:25:25;;;;;;;13.27;8.25;;;0.30;99.90;;;;;;4934435;28;20383;-83
2023/01/24 06:27:53;;;;;;;29.45;13.88;;;0.30;99.90;;;;;;4929641;28;20055;-83
2023/01/24 06:30:21;;;;;;;29.35;18.38;;;0.30;99.90;;;;;;4947800;28;20042;-82
2023/01/24 06:33:04;;;;;;;24.55;14.80;;;0.30;99.90;;;;;;4968208;28;20483;-83
2023/01/24 06:35:34;;;;;;;41.72;15.93;;;0.40;99.90;;;;;;4949835;28;20054;-82
2023/01/24 06:38:02;;;;;;;36.85;21.40;;;0.30;99.90;;;;;;4964366;28;20047;-83
2023/01/24 06:40:30;;;;;;;23.10;11.60;;;0.30;99.90;;;;;;4961016;28;20047;-82
2023/01/24 06:42:58;;;;;;;30.65;16.10;;;0.30;99.90;;;;;;4948614;28;20059;-83
2023/01/24 06:45:26;;;;;;;31.67;15.07;;;0.30;99.90;;;;;;4963617;28;20054;-83
2023/01/24 06:47:55;;;;;;;34.60;20.00;;;0.30;99.90;;;;;;4947505;28;20042;-82
2023/01/24 06:50:29;;;;;;;20.90;14.18;;;0.30;99.90;;;;;;4962320;28;20062;-82
2023/01/24 06:52:57;;;;;;;33.33;17.27;;;0.30;99.90;;;;;;4948367;28;20435;-83
2023/01/24 06:55:25;;;;;;;20.02;13.70;;;0.30;99.90;;;;;;4968169;28;20065;-83
2023/01/24 06:58:00;;;;;;;32.10;20.55;;;0.30;99.90;;;;;;4966355;28;20077;-83
2023/01/24 07:00:29;;;;;;;35.00;17.13;;;0.30;99.90;;;;;;4959101;28;20062;-83
2023/01/24 07:03:02;;;;;;;25.10;13.20;;;0.30;99.90;;;;;;4965093;28;20047;-83
2023/01/24 07:05:30;;;;;;;37.97;16.95;;;0.30;99.90;;;;;;4964814;28;20054;-83
2023/01/24 07:07:58;;;;;;;20.45;12.38;;;0.30;99.90;;;;;;4965860;28;20055;-82
2023/01/24 07:10:26;;;;;;;34.53;15.38;;;0.30;99.90;;;;;;4930930;28;20427;-83
2023/01/24 07:12:55;;;;;;;39.83;18.10;;;0.30;99.90;;;;;;4942221;28;20062;-82
2023/01/24 07:15:24;;;;;;;25.33;15.43;;;0.30;99.90;;;;;;4946454;28;20062;-83
2023/01/24 07:17:52;;;;;;;30.52;21.67;;;0.30;99.90;;;;;;4949152;28;20355;-83
2023/01/24 07:20:20;;;;;;;32.25;12.52;;;0.30;99.90;;;;;;4960791;28;20057;-83
2023/01/24 07:22:48;;;;;;;28.25;15.52;;;0.40;99.90;;;;;;4960543;28;20050;-83
2023/01/24 07:25:19;;;;;;;22.75;14.88;;;0.40;99.90;;;;;;4944281;28;20432;-83
2023/01/24 07:27:48;;;;;;;27.55;17.58;;;0.40;99.90;;;;;;4961962;28;20051;-83
2023/01/24 07:30:16;;;;;;;34.88;18.10;;;0.40;99.90;;;;;;4944431;28;20050;-83
2023/01/24 07:32:44;;;;;;;19.58;8.38;;;0.30;99.90;;;;;;4961266;28;20047;-83
2023/01/24 07:35:12;;;;;;;29.27;16.20;;;0.40;99.90;;;;;;4961795;28;20061;-82
2023/01/24 07:37:39;;;;;;;31.10;15.63;;;0.40;99.90;;;;;;4966547;28;20054;-81
2023/01/24 07:40:08;;;;;;;27.15;13.77;;;0.40;99.90;;;;;;4961314;28;20043;-82
2023/01/24 07:42:35;;;;;;;20.05;14.35;;;0.40;99.90;;;;;;4927942;28;20078;-81
2023/01/24 07:45:04;;;;;;;53.15;18.70;;;0.40;99.90;;;;;;4956492;28;20070;-82
2023/01/24 07:47:32;;;;;;;21.60;11.73;;;0.40;99.90;;;;;;4945668;29;20066;-81
2023/01/24 07:49:59;;;;;;;28.63;16.83;;;0.40;99.90;;;;;;4943819;28;20065;-82
2023/01/24 07:52:27;;;;;;;16.40;10.63;;;0.40;99.90;;;;;;4965471;28;20050;-82
2023/01/24 07:54:54;;;;;;;34.08;15.35;;;0.40;99.90;;;;;;4956855;28;20062;-82
2023/01/24 07:57:22;;;;;;;24.45;14.00;;;0.40;99.90;;;;;;4944075;28;20050;-82
2023/01/24 07:59:50;;;;;;;21.98;13.93;;;0.40;99.90;;;;;;4957922;28;20419;-81
2023/01/24 08:02:17;;;;;;;22.25;11.30;;;0.40;99.90;;;;;;4966182;28;20062;-82
2023/01/24 08:04:45;;;;;;;18.80;13.65;;;0.50;99.90;;;;;;4960308;28;20054;-82
2023/01/24 08:07:20;;;;;;;21.40;11.88;;;0.50;99.90;;;;;;4965608;28;20050;-82
2023/01/24 08:09:48;;;;;;;20.10;11.32;;;0.50;99.90;;;;;;4947785;28;20049;-82
2023/01/24 08:12:20;;;;;;;30.55;18.67;;;0.50;99.90;;;;;;4946946;28;20050;-82
2023/01/24 08:14:48;;;;;;;26.33;19.35;;;0.50;99.90;;;;;;4959155;28;20522;-81
2023/01/24 08:17:16;;;;;;;27.77;13.05;;;0.50;99.90;;;;;;4946924;28;20054;-82
2023/01/24 08:19:44;;;;;;;24.85;13.90;;;0.50;99.90;;;;;;4959922;28;20062;-82
2023/01/24 08:22:23;;;;;;;38.78;23.17;;;0.50;99.90;;;;;;4966764;28;20055;-80
2023/01/24 08:24:51;;;;;;;33.13;18.20;;;0.50;99.90;;;;;;4965764;28;20058;-82
2023/01/24 08:27:18;;;;;;;23.45;12.60;;;0.50;99.90;;;;;;4964208;28;20058;-83
2023/01/24 08:29:46;;;;;;;21.75;16.90;;;0.50;99.90;;;;;;4943191;28;20039;-82
2023/01/24 08:32:13;;;;;;;24.27;13.55;;;0.50;99.90;;;;;;4964282;28;20049;-83
2023/01/24 08:34:41;;;;;;;31.00;16.00;;;0.50;99.90;;;;;;4963836;28;20537;-82
2023/01/24 08:37:09;;;;;;;22.58;11.40;;;0.50;99.90;;;;;;4960614;28;20043;-83
2023/01/24 08:39:36;;;;;;;29.63;13.45;;;0.50;99.90;;;;;;4958806;28;20059;-83
2023/01/24 08:42:04;;;;;;;21.15;13.52;;;0.60;99.90;;;;;;4953200;28;20053;-83
2023/01/24 08:44:32;;;;;;;10.93;8.63;;;0.50;99.90;;;;;;4958503;28;20051;-82
2023/01/24 08:46:59;;;;;;;31.38;20.67;;;0.50;99.90;;;;;;4962225;28;20363;-82
2023/01/24 08:49:27;;;;;;;25.33;15.38;;;0.50;99.90;;;;;;4944225;28;20043;-83
2023/01/24 08:51:58;;;;;;;17.45;10.35;;;0.60;99.90;;;;;;4970789;28;20067;-83
2023/01/24 08:54:28;;;;;;;21.83;16.90;;;0.50;99.90;;;;;;4962175;28;20139;-82
2023/01/24 08:56:56;;;;;;;17.95;13.25;;;0.60;99.90;;;;;;4930659;28;20042;-82
2023/01/24 08:59:24;;;;;;;18.30;13.13;;;0.60;99.90;;;;;;4945132;28;20065;-82
2023/01/24 09:01:52;;;;;;;25.20;15.68;;;0.60;99.90;;;;;;4968746;28;20054;-83
2023/01/24 09:04:20;;;;;;;26.55;14.95;;;0.60;99.90;;;;;;4939192;28;20050;-83
2023/01/24 09:06:50;;;;;;;25.52;13.27;;;0.70;99.90;;;;;;4966475;28;20051;-83
2023/01/24 09:09:18;;;;;;;27.57;15.10;;;0.70;99.90;;;;;;4956814;28;20046;-83
2023/01/24 09:11:46;;;;;;;27.08;13.98;;;0.70;99.90;;;;;;4965351;28;20047;-82
2023/01/24 09:14:14;;;;;;;16.48;12.18;;;0.70;99.90;;;;;;4960491;28;20057;-83
2023/01/24 09:16:41;;;;;;;21.17;12.45;;;0.80;99.90;;;;;;4950463;28;20053;-82
2023/01/24 09:19:11;;;;;;;17.75;11.55;;;0.80;99.90;;;;;;4974439;28;20039;-83
2023/01/24 09:26:11;;;;;;;18.92;11.25;;;0.90;99.90;;;;;;4959657;28;20035;-83
2023/01/24 09:28:39;;;;;;;18.52;11.68;;;0.90;99.90;;;;;;4973733;28;20045;-83
2023/01/24 09:31:08;;;;;;;34.67;12.23;;;0.90;99.90;;;;;;4954239;28;20047;-84
2023/01/24 09:33:36;;;;;;;21.70;12.82;;;0.90;99.90;;;;;;4973277;28;20038;-84
2023/01/24 09:36:16;;;;;;;19.77;12.27;;;0.90;99.90;;;;;;4973005;28;20043;-84
2023/01/24 09:38:44;;;;;;;23.35;17.48;;;1.00;99.90;;;;;;4949764;29;20051;-83
2023/01/24 09:42:06;;;;;;;21.85;16.40;;;1.00;99.90;;;;;;4966675;28;20046;-84
2023/01/24 09:44:57;;;;;;;25.38;14.57;;;1.00;99.90;;;;;;4956001;28;20043;-84
2023/01/24 09:47:31;;;;;;;20.42;13.95;;;1.00;99.90;;;;;;4967091;28;20046;-85
2023/01/24 09:50:02;;;;;;;30.75;16.73;;;1.00;99.90;;;;;;4974718;28;20039;-86
2023/01/24 09:52:59;;;;;;;25.77;14.47;;;1.00;99.90;;;;;;4972064;28;20034;-85
2023/01/24 09:55:41;;;;;;;20.48;14.40;;;1.00;99.90;;;;;;4986594;28;20035;-85
2023/01/24 09:58:30;;;;;;;23.13;13.25;;;1.10;99.90;;;;;;4988130;28;20039;-85
2023/01/24 10:01:06;;;;;;;23.77;13.18;;;1.10;99.90;;;;;;4973464;28;20039;-86
2023/01/24 10:03:35;;;;;;;18.45;13.18;;;1.10;99.90;;;;;;4977182;28;20045;-86
2023/01/24 10:06:09;;;;;;;19.52;12.13;;;1.10;99.90;;;;;;4974450;28;20053;-85
2023/01/24 10:09:12;;;;;;;17.98;11.57;;;1.00;99.90;;;;;;4973086;28;20034;-85
2023/01/24 10:11:54;;;;;;;25.00;11.45;;;1.00;99.90;;;;;;4991532;28;20031;-86
2023/01/24 10:14:44;;;;;;;;;;;1.00;99.90;;;;;;4947607;28;20052;-86
2023/01/24 10:17:35;;;;;;;14.70;12.10;;;1.00;99.90;;;;;;4986741;28;19911;-86
2023/01/24 10:20:06;;;;;;;25.02;14.13;;;1.00;99.90;;;;;;4974584;28;20043;-85
2023/01/24 10:23:01;;;;;;;23.60;13.10;;;1.10;99.90;;;;;;4954608;28;20282;-86
2023/01/24 10:25:50;;;;;;;14.95;10.23;;;1.10;99.90;;;;;;4970378;28;20039;-87
2023/01/24 10:28:40;;;;;;;20.42;13.45;;;1.10;99.90;;;;;;4988952;28;20041;-86
2023/01/24 10:31:14;;;;;;;22.88;14.10;;;1.10;99.90;;;;;;4979556;28;20614;-88
2023/01/24 10:33:47;;;;;;;17.67;11.38;;;1.10;99.90;;;;;;4989347;28;20057;-87
2023/01/24 10:36:43;;;;;;;19.35;14.73;;;1.10;99.90;;;;;;4990336;28;20027;-87
2023/01/24 10:39:11;;;;;;;27.45;11.70;;;1.10;99.90;;;;;;4969808;28;20051;-87
2023/01/24 10:41:39;;;;;;;16.13;10.23;;;1.10;99.90;;;;;;4947980;28;20042;-86
2023/01/24 10:44:28;;;;;;;29.73;13.40;;;1.20;99.90;;;;;;4962414;28;20058;-88
2023/01/24 10:47:36;;;;;;;23.92;18.00;;;1.20;99.90;;;;;;4944815;28;20098;-86
2023/01/24 10:50:13;;;;;;;22.10;14.18;;;1.10;99.90;;;;;;4967539;28;20050;-87
2023/01/24 10:52:49;;;;;;;16.92;11.63;;;1.10;99.90;;;;;;4961621;28;20753;-88
2023/01/24 10:55:37;;;;;;;28.60;12.55;;;1.10;99.90;;;;;;4959924;28;20062;-88
2023/01/24 10:58:22;;;;;;;24.40;14.63;;;1.10;99.90;;;;;;4958410;28;20452;-87
2023/01/24 11:00:58;;;;;;;24.98;13.63;;;1.00;99.90;;;;;;4960456;28;20046;-89
2023/01/24 11:03:29;;;;;;;25.65;13.95;;;1.00;99.90;;;;;;4943640;28;20051;-88
2023/01/24 11:05:58;;;;;;;27.10;14.73;;;1.00;99.90;;;;;;4948282;28;20062;-88
2023/01/24 11:08:35;;;;;;;18.95;12.05;;;1.10;99.90;;;;;;4962228;28;20432;-88
2023/01/24 11:11:20;;;;;;;18.95;12.50;;;1.10;99.90;;;;;;4967651;28;20054;-88
2023/01/24 11:13:53;;;;;;;24.50;11.20;;;1.20;99.90;;;;;;4964549;28;20043;-89
2023/01/24 11:16:26;;;;;;;29.88;12.70;;;1.20;99.90;;;;;;4962617;28;20062;-86
2023/01/24 11:18:58;;;;;;;20.60;12.65;;;1.30;99.90;;;;;;4945804;28;20054;-89
2023/01/24 11:21:28;;;;;;;17.65;12.32;;;1.20;99.90;;;;;;4963552;28;20058;-89
2023/01/24 11:24:05;;;;;;;19.02;12.88;;;1.20;99.90;;;;;;4936538;28;20059;-88
2023/01/24 11:26:38;;;;;;;20.70;13.90;;;1.30;99.90;;;;;;4969001;28;20065;-89
2023/01/24 11:29:15;;;;;;;13.88;8.32;;;1.30;99.90;;;;;;4959458;28;20050;-89
2023/01/24 11:31:48;;;;;;;23.83;13.32;;;1.30;99.90;;;;;;4945632;28;20813;-88
2023/01/24 11:34:35;;;;;;;24.25;13.93;;;1.40;99.90;;;;;;4926062;28;20431;-90
2023/01/24 11:37:33;;;;;;;18.90;12.07;;;1.40;99.90;;;;;;4952158;28;20043;-90
2023/01/24 11:41:08;;;;;;;10.75;9.63;;;1.30;99.90;;;;;;4966351;28;20059;-88
2023/01/24 11:44:05;;;;;;;24.50;13.07;;;1.40;99.90;;;;;;4873462;29;20096;-90
2023/01/24 11:46:45;;;;;;;6.75;6.18;;;1.40;99.90;;;;;;4860119;29;20055;-89
2023/01/24 11:49:13;;;;;;;11.77;10.05;;;1.40;99.90;;;;;;4961362;28;20050;-90
2023/01/24 11:52:25;;;;;;;18.25;10.60;;;1.50;99.90;;;;;;4949077;28;20057;-89
2023/01/24 11:55:50;;;;;;;23.67;12.68;;;1.40;99.90;;;;;;4949511;28;20049;-89
2023/01/24 11:58:43;;;;;;;17.73;12.27;;;1.50;99.90;;;;;;4873972;29;20048;-89
2023/01/24 12:01:24;;;;;;;16.17;10.50;;;1.50;99.90;;;;;;4891408;29;20052;-92
2023/01/24 12:04:05;;;;;;;23.98;13.63;;;1.40;99.90;;;;;;4951042;28;20069;-90
2023/01/24 12:06:54;;;;;;;20.42;10.43;;;1.40;99.90;;;;;;4966387;28;20054;-91
2023/01/24 12:09:23;;;;;;;14.20;12.52;;;1.50;99.90;;;;;;4962850;28;20507;-88
2023/01/24 12:12:07;;;;;;;24.17;12.05;;;1.40;99.90;;;;;;4965222;28;20050;-90
2023/01/24 12:15:02;;;;;;;23.00;14.00;;;1.40;99.90;;;;;;4928641;28;20043;-88
2023/01/24 12:17:45;;;;;;;21.88;11.65;;;1.40;99.90;;;;;;4946844;28;20047;-85
2023/01/24 12:20:39;;;;;;;9.23;7.90;;;1.40;99.90;;;;;;4958039;28;20034;-88
2023/01/24 12:23:20;;;;;;;17.58;10.57;;;1.40;99.90;;;;;;4968452;28;20062;-87
2023/01/24 12:25:51;;;;;;;12.03;10.57;;;1.50;99.90;;;;;;4959786;28;20066;-88
2023/01/24 12:28:54;;;;;;;21.92;13.38;;;1.50;99.90;;;;;;4946140;28;20054;-93
2023/01/24 12:31:34;;;;;;;14.70;9.38;;;1.50;99.90;;;;;;4966794;28;20061;-87
2023/01/24 12:34:26;;;;;;;16.75;10.13;;;1.50;99.90;;;;;;4959020;28;20056;-88
2023/01/24 12:37:33;;;;;;;21.25;12.82;;;1.50;99.90;;;;;;4954566;28;20047;-88
2023/01/24 12:40:12;;;;;;;16.50;11.48;;;1.50;99.90;;;;;;4957690;28;21376;-88
2023/01/24 12:42:52;;;;;;;14.70;9.40;;;1.50;99.90;;;;;;4964963;28;20051;-89
2023/01/24 12:45:32;;;;;;;12.13;9.32;;;1.50;99.90;;;;;;4943466;28;20054;-88
2023/01/24 12:48:24;;;;;;;15.35;10.40;;;1.50;99.90;;;;;;4962732;28;20051;-89
2023/01/24 12:51:08;;;;;;;15.40;11.52;;;1.50;99.90;;;;;;4962138;28;20059;-87
2023/01/24 12:53:54;;;;;;;15.75;12.30;;;1.40;99.90;;;;;;4958558;28;20065;-88
2023/01/24 12:56:46;;;;;;;27.40;15.55;;;1.40;99.90;;;;;;4959516;28;20042;-87
2023/01/24 12:59:21;;;;;;;19.90;10.45;;;1.40;99.90;;;;;;4941979;28;20055;-90
2023/01/24 13:02:43;;;;;;;12.73;9.07;;;1.40;99.90;;;;;;4964193;28;20050;-88
2023/01/24 13:05:28;;;;;;;18.42;14.65;;;1.40;99.90;;;;;;4925766;28;20051;-88
2023/01/24 13:08:24;;;;;;;21.00;14.55;;;1.40;99.90;;;;;;4952948;28;20059;-87
2023/01/24 13:10:54;;;;;;;14.35;11.85;;;1.40;99.90;;;;;;4965087;28;20054;-91
2023/01/24 13:13:45;;;;;;;16.52;13.00;;;1.40;99.90;;;;;;4971658;28;20057;-91
2023/01/24 13:16:58;;;;;;;22.75;13.38;;;1.40;99.90;;;;;;4951444;28;20061;-90
2023/01/24 13:19:35;;;;;;;17.38;11.23;;;1.40;99.90;;;;;;4959849;28;20051;-91
2023/01/24 13:22:10;;;;;;;29.40;14.60;;;1.30;99.90;;;;;;4948197;28;20400;-92
2023/01/24 13:24:40;;;;;;;20.30;12.32;;;1.40;99.90;;;;;;4942621;28;20490;-87
2023/01/24 13:27:14;;;;;;;25.70;15.25;;;1.30;99.90;;;;;;4952153;28;20427;-90
2023/01/24 13:30:10;;;;;;;21.63;10.75;;;1.30;99.90;;;;;;4928325;28;20042;-89
2023/01/24 13:32:39;;;;;;;15.57;11.02;;;1.30;99.90;;;;;;4951936;28;20058;-90
2023/01/24 13:35:17;;;;;;;28.27;17.35;;;1.30;99.90;;;;;;4920694;28;20483;-91
2023/01/24 13:38:21;;;;;;;29.13;14.38;;;1.20;99.90;;;;;;4944500;28;20051;-88
2023/01/24 13:41:36;;;;;;;20.20;13.95;;;1.20;99.90;;;;;;4924924;28;20069;-90
2023/01/24 13:44:27;;;;;;;22.20;14.82;;;1.20;99.90;;;;;;4943849;28;20645;-89
2023/01/24 13:47:13;;;;;;;26.23;13.48;;;1.20;99.90;;;;;;4940224;28;20058;-92
2023/01/24 13:50:03;;;;;;;22.17;16.00;;;1.20;99.90;;;;;;4943219;28;20039;-90
2023/01/24 13:52:42;;;;;;;23.63;15.77;;;1.10;99.90;;;;;;4966997;28;20621;-87
2023/01/24 13:55:19;;;;;;;27.55;17.25;;;1.10;99.90;;;;;;4935867;29;20059;-89
2023/01/24 13:57:48;;;;;;;24.27;16.48;;;1.10;99.90;;;;;;4949933;28;20054;-88
2023/01/24 14:00:18;;;;;;;22.67;14.63;;;1.10;99.90;;;;;;4937314;28;20051;-88